KSAT - San Antonio Intl, TX, US

Issued at 2328 UTC 29 May 2020
Updated at 2331 UTC 29 May 2020
Potential Impact None Slight Moderate High
Time2251Z 30/00Z 30/01Z 30/02Z 30/03Z 30/04Z 30/05Z 30/06Z 30/07Z 30/08Z 30/09Z 30/10Z 30/11Z 30/12Z>>
Type OBS PRVL PRVL PRVL PRVL PRVL PRVL PRVL PRVL PRVL PRVL PRVL PRVL PRVL
VIS 10 >6 >6 >6 >6 >6 >6 >6 >6 >6 >6 >6 >6 >6
CIG 250 250 250 250 250 250 250 250 250 250 250 250 250 250
Cover BKN BKN BKN BKN BKN BKN BKN BKN BKN BKN BKN BKN BKN BKN
FltCat VFR VFR VFR VFR VFR VFR VFR VFR VFR VFR VFR VFR VFR VFR
WX -- -- -- -- -- -- -- -- -- -- -- -- -- --
WDir 60 40 40 40 40 40 40 40 40 40 40 40 40 40
WSpd 7 7 7 7 7 7 7 7 7 7 7 7 7 7
WGst -- -- -- -- -- -- -- -- -- -- -- -- -- --
Raw TAF
KSAT 292328Z 3000/3106 04007KT P6SM BKN250

Raw METAR
KSAT 292251Z 06007KT 10SM FEW070 BKN250 30/13 A3007 RMK AO2 SLP166 T03000128 $
KSAT 292151Z 06009G18KT 10SM SCT065 BKN250 31/14 A3008 RMK AO2 SLP169 T03060144 $
KSAT 292051Z 03010KT 10SM SCT060 BKN250 31/16 A3009 RMK AO2 SLP172 T03110156 58003 $

METAR Board
Radar Display
Forecast Discussion
For situational awareness. Not to be used for flight planning purposes.